• Join FlightAware (Why Join?)
  • Login
  • US Flag 
07:02PM EDT


 

Airport Tracker/Info


-or-


 

Live Flight TrackerFlight Track Log ✈ VH-LBB ✈ 05-Mar-2014 ✈ YHLC / HCQ - YBRM / BME

Flight Track Log - Related Links

Times and Time Zones

All times are in EST time to prevent confusion due to time zone crossing. See the VH-LBB flight status page for this flight to view local times or setup timezone preferences in your user account.

Time Position Orientation Groundspeed Altitude Reporting Facility
EST Latitude Longitude Course Direction KTS MPH feet Rate Location/Type
09:55PM -18.2245 127.1443 271° West 10,000  Level Aus ATC (Calculated)
09:55PM -18.2239 127.0762 271° West 10,000  Level Aus ATC (Calculated)
09:57PM -18.2229 127.0202 271° West  Level FlightAware Approximate
09:58PM -18.2219 126.9668 271° West  Level FlightAware Approximate
09:58PM -18.2215 126.9444 271° West 10,000  Level Aus ATC (Calculated)
09:59PM -18.2208 126.9134 271° West  Level FlightAware Approximate
10:00PM -18.2204 126.8883 271° West  Level FlightAware Approximate
10:01PM -18.2193 126.8349 271° West  Level FlightAware Approximate
10:01PM -18.2189 126.8126 271° West 10,000  Level Aus ATC (Calculated)
10:02PM -18.2183 126.7815 271° West  Level FlightAware Approximate
10:03PM -18.2176 126.7480 271° West  Level FlightAware Approximate
10:04PM -18.2165 126.6956 271° West  Level FlightAware Approximate
10:05PM -18.2155 126.6432 271° West  Level FlightAware Approximate
10:06PM -18.2144 126.5908 271° West  Level FlightAware Approximate
10:07PM -18.2132 126.5384 271° West  Level FlightAware Approximate
10:07PM -18.2121 126.4830 91° East 10,000  Level Aus ATC (Calculated)
10:08PM -18.2121 126.4861 271° West  Level FlightAware Approximate
10:09PM -18.2107 126.4219 271° West  Level FlightAware Approximate
10:10PM -18.2096 126.3695 271° West  Level FlightAware Approximate
10:10PM -18.2089 126.3522 271° West 10,000  Level Aus ATC (Calculated)
10:12PM -18.2067 126.2527 271° West  Level FlightAware Approximate
10:13PM -18.2055 126.2003 271° West  Level FlightAware Approximate
10:14PM -18.2043 126.1479 271° West  Level FlightAware Approximate
10:15PM -18.2031 126.0956 271° West  Level FlightAware Approximate
10:16PM -18.2019 126.0432 271° West  Level FlightAware Approximate
10:17PM -18.2007 125.9908 271° West  Level FlightAware Approximate
10:18PM -18.1994 125.9385 271° West  Level FlightAware Approximate
10:19PM -18.1982 125.8861 271° West  Level FlightAware Approximate
10:20PM -18.1969 125.8337 271° West  Level FlightAware Approximate
10:21PM -18.1956 125.7813 271° West  Level FlightAware Approximate
10:21PM -18.1951 125.7580 272° West 10,000  Level Aus ATC (Calculated)
10:22PM -18.1943 125.7290 271° West  Level FlightAware Approximate
10:23PM -18.1926 125.6585 272° West  Level FlightAware Approximate
10:24PM -18.1912 125.6061 272° West  Level FlightAware Approximate
10:25PM -18.1878 125.5538 274° West  Level Estimated
10:26PM -18.1843 125.5016 274° West  Level FlightAware Approximate
10:27PM -18.1808 125.4493 274° West  Level FlightAware Approximate
10:27PM -18.1825 125.4510 360° North 10,000  Level Aus ATC (Calculated)
10:27PM -18.1825 125.4510 274° West 10,000  Level Aus ATC (Calculated)
10:29PM -18.1761 125.3578 274° West  Level FlightAware Approximate
10:30PM -18.1724 125.3050 274° West  Level FlightAware Approximate
10:31PM -18.1687 125.2523 274° West  Level FlightAware Approximate
10:32PM -18.1650 125.1995 274° West  Level FlightAware Approximate
10:33PM -18.1613 125.1468 274° West  Level FlightAware Approximate
10:34PM -18.1576 125.0941 274° West  Level FlightAware Approximate
10:34PM -18.1519 125.0139 94° East 10,000  Level Aus ATC (Calculated)
10:35PM -18.1539 125.0413 274° West  Level FlightAware Approximate
10:36PM -18.1469 124.9445 274° West  Level FlightAware Approximate
10:37PM -18.1432 124.8917 274° West  Level FlightAware Approximate
10:38PM -18.1394 124.8390 274° West  Level FlightAware Approximate
10:39PM -18.1356 124.7863 274° West  Level FlightAware Approximate
10:40PM -18.1318 124.7336 274° West  Level FlightAware Approximate
10:41PM -18.1279 124.6808 274° West  Level FlightAware Approximate
10:42PM -18.1241 124.6281 274° West  Level FlightAware Approximate
10:43PM -18.1202 124.5754 274° West  Level FlightAware Approximate
10:43PM -18.1163 124.5224 95° East 10,000  Level Aus ATC (Calculated)
10:44PM -18.1163 124.5227 274° West  Level FlightAware Approximate
10:45PM -18.1105 124.4433 274° West  Level FlightAware Approximate
10:46PM -18.1065 124.3906 274° West  Level FlightAware Approximate
10:47PM -18.1026 124.3379 274° West  Level FlightAware Approximate
10:47PM -18.1001 124.3040 275° West 10,000  Level Aus ATC (Calculated)
10:48PM -18.0987 124.2852 274° West  Level FlightAware Approximate
10:49PM -18.0951 124.2372 275° West  Level FlightAware Approximate
10:49PM -18.0919 124.1948 275° West 10,000  Level Aus ATC (Calculated)
10:50PM -18.0911 124.1845 275° West  Level FlightAware Approximate
10:50PM -18.0836 124.0856 95° East 10,000  Level Aus ATC (Calculated)
10:51PM -18.0860 124.1166 275° West  Level FlightAware Approximate
10:52PM -18.0791 124.0259 275° West  Level FlightAware Approximate
10:52PM -18.0795 124.0311 275° West 10,000  Level Aus ATC (Calculated)
10:53PM -18.0753 123.9765 275° West 10,000  Level Aus ATC (Calculated)
10:54PM -18.0738 123.9573 275° West  Level FlightAware Approximate
10:55PM -18.0693 123.8983 275° West  Level FlightAware Approximate
10:56PM -18.0652 123.8456 275° West  Level FlightAware Approximate
10:57PM -18.0615 123.7929 274° West  Level Estimated
10:58PM -18.0578 123.7402 274° West  Level FlightAware Approximate
10:58PM -18.0560 123.7136 274° West 100  Level Aus ATC (Calculated)
10:59PM -18.0523 123.6609 274° West  Level FlightAware Approximate
10:59PM -18.0492 123.6145 274° West 100  Level Aus ATC (Calculated)
11:01PM -18.0422 123.5161 274° West  Level FlightAware Approximate
11:02PM -18.0385 123.4634 274° West  Level FlightAware Approximate
11:03PM -18.0347 123.4107 274° West  Level FlightAware Approximate
11:04PM -18.0308 123.3580 274° West  Level FlightAware Approximate
11:05PM -18.0270 123.3054 274° West  Level FlightAware Approximate
11:05PM -18.0277 123.3196 274° West 300  Level Aus ATC (Calculated)
11:06PM -18.0232 123.2527 274° West  Level FlightAware Approximate
11:06PM -18.0205 123.2210 274° West 300  Level Aus ATC (Calculated)
11:08PM -18.0146 123.1393 274° West  Level FlightAware Approximate
11:08PM -18.0148 123.1191 278° West 100  Level Aus ATC (Calculated)
11:09PM -18.0107 123.0866 274° West  Level FlightAware Approximate
11:10PM -18.0105 123.0620 275° West  Level FlightAware Approximate
11:11PM -18.0065 123.0093 275° West  Level FlightAware Approximate
11:12PM -18.0025 122.9566 275° West  Level FlightAware Approximate
11:13PM -17.9985 122.9040 275° West  Level FlightAware Approximate
11:14PM -17.9945 122.8513 275° West  Level FlightAware Approximate
11:15PM -17.9904 122.7987 275° West  Level FlightAware Approximate
11:16PM -17.9864 122.7460 275° West  Level FlightAware Approximate
11:16PM -17.9863 122.7228 276° West 100  Level Aus ATC (Calculated)
11:17PM -17.9766 122.6295 360° North 300 60 Climbing Aus ATC (Calculated)
11:17PM -17.9766 122.6295 256° West 300  Level Aus ATC (Calculated)
11:18PM -17.9782 122.6228 275° West  Level FlightAware Approximate
11:19PM -17.9721 122.5707 275° West  Level FlightAware Approximate
11:20PM -17.9681 122.5180 275° West  Level FlightAware Approximate
11:21PM -17.9641 122.4653 275° West  Level FlightAware Approximate
11:22PM -17.9600 122.4127 275° West  Level FlightAware Approximate
11:23PM -17.9560 122.3600 275° West  Level FlightAware Approximate
11:24PM -17.9519 122.3074 275° West  Level FlightAware Approximate
11:25PM -17.9478 122.2548 275° West  Level FlightAware Approximate
11:26PM -17.9447 122.2317 275° West  Level Estimated
11:27PM -17.9463 122.2353 274° West  Level FlightAware Approximate
11:28PM -17.9447 122.2317 274° West  Level Estimated
11:29PM -17.9463 122.2353 274° West  Level FlightAware Approximate
11:30PM -17.9447 122.2317 274° West  Level Estimated
11:31PM -17.9463 122.2353 274° West  Level FlightAware Approximate
11:32PM -17.9447 122.2317 274° West  Level Estimated
11:33PM -17.9463 122.2353 274° West  Level FlightAware Approximate
11:34PM -17.9447 122.2317 274° West  Level Estimated
11:35PM -17.9463 122.2353 274° West  Level FlightAware Approximate
11:36PM -17.9447 122.2317 274° West  Level Estimated
11:37PM -17.9463 122.2353 274° West  Level FlightAware Approximate
11:38PM -17.9447 122.2317 274° West  Level Estimated
11:39PM -17.9463 122.2353 274° West  Level FlightAware Approximate
11:40PM -17.9447 122.2317 274° West  Level Estimated
11:41PM -17.9463 122.2353 274° West  Level FlightAware Approximate
11:42PM -17.9447 122.2317 274° West  Level Estimated
11:43PM -17.9463 122.2353 274° West  Level FlightAware Approximate
11:44PM -17.9447 122.2317 274° West  Level Estimated